Time;durP1;ratioP1;P1;durP2;ratioP2;P2;SDS_P1;SDS_P2;PMS_P1;PMS_P2;Temp;Humidity;BMP_temperature;BMP_pressure;BME280_temperature;BME280_humidity;BME280_pressure;Samples;Min_cycle;Max_cycle;Signal;HPM_P1;HPM_P2
2021/05/01 00:05:00;;;;;;;1999.90;999.90;;;;;;;9.51;69.50;100988.88;15308145;29;20050;-61
2021/05/01 00:12:32;;;;;;;1999.90;999.90;;;;;;;9.49;69.80;100970.84;15308275;29;20489;-59
2021/05/01 00:20:07;;;;;;;1999.90;999.90;;;;;;;9.90;68.57;100980.81;15303037;29;20087;-61
2021/05/01 00:27:38;;;;;;;1999.90;999.90;;;;;;;9.72;69.19;100991.94;15305817;29;20094;-61
2021/05/01 00:35:11;;;;;;;1999.90;999.90;;;;;;;9.96;68.37;100983.16;15308267;29;20465;-62
2021/05/01 00:42:43;;;;;;;1999.90;999.90;;;;;;;9.97;68.70;100989.56;15308038;29;20662;-60
2021/05/01 00:50:19;;;;;;;1999.90;999.90;;;;;;;9.92;69.06;100976.59;15298607;29;20055;-62
2021/05/01 00:57:51;;;;;;;1999.90;999.90;;;;;;;9.70;69.57;100968.31;15307760;29;20036;-61
2021/05/01 01:05:23;;;;;;;1999.90;999.90;;;;;;;9.50;70.47;100989.19;15314476;29;20055;-60
2021/05/01 01:12:55;;;;;;;1999.90;999.90;;;;;;;9.93;69.08;100974.63;15301192;29;20067;-61
2021/05/01 01:20:27;;;;;;;1999.90;999.90;;;;;;;9.82;69.25;100974.91;15316777;29;20043;-61
2021/05/01 01:28:01;;;;;;;1999.90;999.90;;;;;;;10.14;67.88;100978.47;15318536;29;20051;-61
2021/05/01 01:35:33;;;;;;;1999.90;999.90;;;;;;;10.08;68.00;100988.13;15285183;29;20051;-61
2021/05/01 01:43:05;;;;;;;1999.90;999.90;;;;;;;10.11;67.72;100988.31;15316347;29;20048;-61
2021/05/01 01:50:37;;;;;;;1999.90;999.90;;;;;;;10.13;67.85;100987.97;15288427;29;20175;-62
2021/05/01 01:58:09;;;;;;;1999.90;999.90;;;;;;;10.34;67.19;100985.44;15304039;29;20036;-61
2021/05/01 02:05:41;;;;;;;1999.90;999.90;;;;;;;10.02;68.66;100981.06;15311229;29;20044;-62
2021/05/01 02:13:14;;;;;;;1999.90;999.90;;;;;;;9.94;68.67;100987.41;15296643;29;20494;-61
2021/05/01 02:20:45;;;;;;;1999.90;999.90;;;;;;;10.20;68.54;100993.88;15288092;29;20078;-61
2021/05/01 02:28:18;;;;;;;1999.90;999.90;;;;;;;10.37;67.68;100988.41;15308876;29;20103;-60
2021/05/01 02:35:50;;;;;;;1999.90;999.90;;;;;;;10.35;67.17;100995.44;15311635;29;20043;-59
2021/05/01 02:43:22;;;;;;;1999.90;999.90;;;;;;;9.98;68.65;100966.09;15312315;29;20047;-60
2021/05/01 02:50:54;;;;;;;1999.90;999.90;;;;;;;9.97;68.97;100959.72;15309689;29;20057;-59
2021/05/01 02:58:27;;;;;;;1999.90;999.90;;;;;;;10.15;68.08;100949.44;15310803;29;20047;-60
2021/05/01 03:05:59;;;;;;;1999.90;999.90;;;;;;;9.99;69.11;100945.44;15311505;29;20335;-60
2021/05/01 03:13:31;;;;;;;1999.90;999.90;;;;;;;9.70;70.27;100937.66;15283834;29;20059;-61
2021/05/01 03:21:07;;;;;;;1999.90;999.90;;;;;;;9.35;71.09;100926.34;15310566;29;20046;-61
2021/05/01 03:28:39;;;;;;;1999.90;999.90;;;;;;;9.30;71.28;100929.28;15297011;23;20071;-63
2021/05/01 03:36:11;;;;;;;1999.90;999.90;;;;;;;9.14;72.02;100928.03;15279943;29;20484;-63
2021/05/01 03:43:43;;;;;;;1999.90;999.90;;;;;;;9.34;71.61;100924.69;15263197;29;20119;-63
2021/05/01 03:51:15;;;;;;;1999.90;999.90;;;;;;;9.41;71.38;100936.22;15255224;29;20052;-64
2021/05/01 03:58:48;;;;;;;1999.90;999.90;;;;;;;9.50;71.01;100925.94;15254288;29;20048;-64
2021/05/01 04:06:19;;;;;;;1999.90;999.90;;;;;;;9.47;71.16;100928.53;15254095;29;20107;-61
2021/05/01 04:13:52;;;;;;;1999.90;999.90;;;;;;;9.41;71.48;100936.22;15253245;29;20048;-62
2021/05/01 04:21:23;;;;;;;1999.90;999.90;;;;;;;9.59;70.61;100920.41;15253634;29;20509;-64
2021/05/01 04:28:57;;;;;;;1999.90;999.90;;;;;;;9.53;71.18;100941.19;15251586;29;20032;-64
2021/05/01 04:36:28;;;;;;;1999.90;999.90;;;;;;;10.10;68.57;100941.22;15256082;29;20051;-63
2021/05/01 04:44:00;;;;;;;1999.90;999.90;;;;;;;9.77;70.20;100946.34;15263707;29;20091;-63
2021/05/01 04:51:34;;;;;;;1999.90;999.90;;;;;;;9.75;69.89;100957.00;15263932;29;20062;-63
2021/05/01 04:59:06;;;;;;;1999.90;999.90;;;;;;;9.92;69.65;100945.94;15263450;29;20079;-63
2021/05/01 05:06:38;;;;;;;1999.90;999.90;;;;;;;9.87;70.01;100956.41;15263424;29;20516;-63
2021/05/01 05:14:10;;;;;;;1999.90;999.90;;;;;;;10.08;68.86;100972.22;15263306;29;20568;-60
2021/05/01 05:21:42;;;;;;;1999.90;999.90;;;;;;;9.91;69.75;100966.59;15262221;29;20111;-64
2021/05/01 05:29:14;;;;;;;1999.90;999.90;;;;;;;9.97;69.68;100964.47;15262429;29;20067;-62
2021/05/01 05:36:46;;;;;;;1999.90;999.90;;;;;;;10.20;68.96;100968.78;15246019;29;20052;-63
2021/05/01 05:44:18;;;;;;;1999.90;999.90;;;;;;;10.36;68.00;100980.34;15261912;29;20048;-62
2021/05/01 05:51:50;;;;;;;1999.90;999.90;;;;;;;10.06;69.31;100982.88;15243993;29;20469;-64
2021/05/01 05:59:22;;;;;;;1999.90;999.90;;;;;;;10.44;67.43;100971.19;15229447;29;20215;-63
2021/05/01 06:07:10;;;;;;;1999.90;999.90;;;;;;;10.31;68.02;100981.31;15207326;29;20048;-61
2021/05/01 06:14:43;;;;;;;1999.90;999.90;;;;;;;10.28;67.53;100983.94;15241774;29;20087;-59
2021/05/01 06:22:15;;;;;;;1999.90;999.90;;;;;;;10.38;68.45;100976.09;15215558;29;20052;-62
2021/05/01 06:29:47;;;;;;;1999.90;999.90;;;;;;;10.51;67.39;100974.28;15236748;29;20056;-61
2021/05/01 06:37:20;;;;;;;1999.90;999.90;;;;;;;10.77;67.11;100977.13;15217831;29;20040;-62
2021/05/01 06:44:57;;;;;;;1999.90;999.90;;;;;;;10.44;67.56;100984.31;15236523;29;20135;-64
2021/05/01 06:52:30;;;;;;;1999.90;999.90;;;;;;;10.73;67.16;100987.28;15245321;29;20503;-63
2021/05/01 07:00:08;;;;;;;1999.90;999.90;;;;;;;10.45;68.09;100985.97;15232757;29;20096;-62
2021/05/01 07:07:39;;;;;;;1999.90;999.90;;;;;;;10.81;67.19;100971.69;15241803;29;20075;-60
2021/05/01 07:15:16;;;;;;;1999.90;999.90;;;;;;;11.20;65.40;100979.88;15241318;29;20405;-63
2021/05/01 07:22:49;;;;;;;1999.90;999.90;;;;;;;11.50;64.89;100983.59;15255644;29;20052;-62
2021/05/01 07:30:24;;;;;;;1999.90;999.90;;;;;;;11.55;64.62;100980.63;15255252;29;20047;-62
2021/05/01 07:37:55;;;;;;;1999.90;999.90;;;;;;;12.32;62.10;100972.25;15253321;29;20044;-61
2021/05/01 07:45:28;;;;;;;1999.90;999.90;;;;;;;13.49;58.45;100984.31;15254676;29;20108;-63
2021/05/01 07:53:02;;;;;;;1999.90;999.90;;;;;;;14.69;54.88;100981.09;15236405;29;20111;-63
2021/05/01 08:00:36;;;;;;;1999.90;999.90;;;;;;;15.52;53.52;100983.09;15253270;29;20141;-61
2021/05/01 08:08:07;;;;;;;1999.90;999.90;;;;;;;16.26;51.31;100991.09;15253661;29;20174;-61
2021/05/01 08:15:40;;;;;;;1999.90;999.90;;;;;;;18.16;47.85;100972.06;15250754;29;20303;-65
2021/05/01 08:23:11;;;;;;;1999.90;999.90;;;;;;;18.20;48.06;100964.44;15236531;29;511396;-65
2021/05/01 08:30:44;;;;;;;1999.90;999.90;;;;;;;17.97;46.92;100960.84;15255140;29;20138;-64
2021/05/01 08:38:15;;;;;;;1999.90;999.90;;;;;;;17.43;46.38;100959.84;15253939;29;20059;-64
2021/05/01 08:45:49;;;;;;;1999.90;999.90;;;;;;;19.80;43.02;100943.91;15269392;29;20131;-64
2021/05/01 08:53:21;;;;;;;1999.90;999.90;;;;;;;19.12;43.43;100950.03;15252960;29;20084;-63
2021/05/01 09:00:53;;;;;;;1999.90;999.90;;;;;;;19.32;41.97;100949.44;15247527;29;20065;-63
2021/05/01 09:08:26;;;;;;;1999.90;999.90;;;;;;;18.12;45.42;100957.03;15209454;29;20458;-66
2021/05/01 09:16:01;;;;;;;1999.90;999.90;;;;;;;17.88;44.44;100946.97;15241064;29;20235;-64
2021/05/01 09:23:36;;;;;;;1999.90;999.90;;;;;;;16.70;48.39;100941.03;15240527;29;20072;-59
2021/05/01 09:31:10;;;;;;;1999.90;999.90;;;;;;;16.71;45.18;100943.47;15276696;29;20071;-62
2021/05/01 09:38:44;;;;;;;1999.90;999.90;;;;;;;18.02;43.45;100949.22;15233631;29;20040;-64
2021/05/01 09:46:16;;;;;;;1999.90;999.90;;;;;;;19.01;41.48;100930.91;15262491;29;20416;-64
2021/05/01 09:53:48;;;;;;;1999.90;999.90;;;;;;;19.37;38.52;100919.97;15261404;29;20048;-65
2021/05/01 10:01:21;;;;;;;1999.90;999.90;;;;;;;18.22;43.17;100913.22;15250462;29;20101;-62
2021/05/01 10:08:54;;;;;;;1999.90;999.90;;;;;;;19.04;38.54;100920.81;15246409;29;20119;-62
2021/05/01 10:16:26;;;;;;;1999.90;999.90;;;;;;;19.25;40.15;100942.91;15255539;29;20622;-61
2021/05/01 10:23:58;;;;;;;1999.90;999.90;;;;;;;17.35;42.33;100920.59;15231985;29;20405;-63
2021/05/01 10:31:44;;;;;;;1999.90;999.90;;;;;;;17.62;42.89;100927.16;15240501;29;20052;-63
2021/05/01 10:39:20;;;;;;;1999.90;999.90;;;;;;;17.31;45.80;100901.59;15235820;29;20044;-64
2021/05/01 10:47:13;;;;;;;1999.90;999.90;;;;;;;16.87;42.90;100886.22;15227887;29;20420;-63
2021/05/01 10:54:59;;;;;;;1999.90;999.90;;;;;;;17.01;42.28;100897.78;15232577;29;20048;-67
2021/05/01 11:02:35;;;;;;;1999.90;999.90;;;;;;;16.61;44.36;100913.03;15255251;29;20139;-64
2021/05/01 11:10:09;;;;;;;1999.90;999.90;;;;;;;16.75;43.87;100923.81;15277777;29;20059;-64
2021/05/01 11:17:48;;;;;;;1999.90;999.90;;;;;;;17.66;41.93;100923.19;15254356;29;20074;-64
2021/05/01 11:25:21;;;;;;;1999.90;999.90;;;;;;;18.06;41.74;100928.31;15220063;29;20036;-64
2021/05/01 11:32:55;;;;;;;1999.90;999.90;;;;;;;18.68;39.88;100928.06;15235627;29;20056;-64
2021/05/01 11:40:27;;;;;;;;;;;;;;;17.67;40.25;100927.63;15228120;29;20514;-64
2021/05/01 11:48:03;;;;;;;1999.90;999.90;;;;;;;16.52;43.01;100931.31;15212647;29;20417;-63
2021/05/01 11:55:42;;;;;;;1999.90;999.90;;;;;;;16.61;45.20;100931.94;15233316;29;20557;-65
2021/05/01 12:03:23;;;;;;;1999.90;999.90;;;;;;;16.47;45.27;100920.38;15248810;29;20109;-66
2021/05/01 12:10:57;;;;;;;1999.90;999.90;;;;;;;16.36;46.41;100918.13;15236653;29;20044;-64
2021/05/01 12:18:42;;;;;;;1999.90;999.90;;;;;;;16.78;45.19;100922.25;15244497;29;20044;-64
2021/05/01 12:26:29;;;;;;;;;;;;;;;17.15;43.62;100909.34;15240675;29;20048;-63
2021/05/01 12:34:01;;;;;;;1999.90;999.90;;;;;;;17.27;43.62;100919.63;15217876;29;20578;-65
2021/05/01 12:41:36;;;;;;;1999.90;999.90;;;;;;;17.10;42.57;100895.56;15249365;29;20044;-65
2021/05/01 12:49:18;;;;;;;1999.90;999.90;;;;;;;17.23;44.65;100888.56;15239290;29;20135;-60
2021/05/01 12:56:50;;;;;;;1999.90;999.90;;;;;;;16.87;42.86;100887.03;15230607;29;20146;-61
2021/05/01 13:04:25;;;;;;;1999.90;999.90;;;;;;;18.20;41.56;100845.81;15233223;29;20048;-61
2021/05/01 13:12:03;;;;;;;1999.90;999.90;;;;;;;19.43;37.49;100833.56;15243991;29;20057;-63
2021/05/01 13:19:56;;;;;;;1999.90;999.90;;;;;;;22.13;31.46;100828.09;15237443;29;20135;-62
2021/05/01 13:27:32;;;;;;;1999.90;999.90;;;;;;;23.92;30.90;100813.63;15228267;29;20044;-60
2021/05/01 13:35:07;;;;;;;1999.90;999.90;;;;;;;20.15;36.94;100817.94;15257145;29;20087;-62
2021/05/01 13:42:40;;;;;;;1999.90;999.90;;;;;;;18.17;39.66;100807.88;15241559;29;20063;-64
2021/05/01 13:50:15;;;;;;;1999.90;999.90;;;;;;;18.40;40.29;100781.53;15234757;29;20059;-63
2021/05/01 13:57:48;;;;;;;1999.90;999.90;;;;;;;18.32;40.15;100779.81;15235476;29;20834;-64
2021/05/01 14:05:22;;;;;;;1999.90;999.90;;;;;;;19.11;38.13;100785.16;15239064;29;20078;-66
2021/05/01 14:12:54;;;;;;;1999.90;999.90;;;;;;;18.17;40.15;100770.34;15216568;29;20056;-64
2021/05/01 14:20:29;;;;;;;1999.90;999.90;;;;;;;18.02;39.90;100789.09;15208545;29;20099;-64
2021/05/01 14:28:03;;;;;;;1999.90;999.90;;;;;;;18.46;39.42;100785.66;15263694;29;20033;-64
2021/05/01 14:35:35;;;;;;;1999.90;999.90;;;;;;;17.66;40.99;100799.03;15241165;29;20048;-64
2021/05/01 14:43:07;;;;;;;1999.90;999.90;;;;;;;18.55;39.41;100799.47;15259070;29;20482;-64
2021/05/01 14:50:40;;;;;;;1999.90;999.90;;;;;;;18.16;39.46;100788.50;15196947;29;20316;-63
2021/05/01 14:58:33;;;;;;;1999.90;999.90;;;;;;;17.46;41.06;100781.38;15220670;29;20546;-64
2021/05/01 15:06:06;;;;;;;1999.90;999.90;;;;;;;17.00;41.01;100760.84;15198560;29;20048;-63
2021/05/01 15:13:38;;;;;;;1999.90;999.90;;;;;;;16.90;41.66;100756.66;15223042;29;20052;-65
2021/05/01 15:21:15;;;;;;;1999.90;999.90;;;;;;;16.88;41.84;100755.38;15184327;29;20048;-66
2021/05/01 15:28:50;;;;;;;1999.90;999.90;;;;;;;16.32;45.72;100745.44;15197206;29;20448;-64
2021/05/01 15:36:23;;;;;;;1999.90;999.90;;;;;;;16.32;45.39;100747.44;15215798;29;20414;-65
2021/05/01 15:43:55;;;;;;;;;;;;;;;16.70;44.55;100744.63;15197236;29;20049;-64
2021/05/01 15:51:27;;;;;;;1999.90;999.90;;;;;;;16.37;44.08;100747.97;15237384;29;20304;-62
2021/05/01 15:58:59;;;;;;;1999.90;999.90;;;;;;;16.37;43.64;100755.59;15253843;29;20170;-62
2021/05/01 16:06:31;;;;;;;1999.90;999.90;;;;;;;16.64;43.58;100745.25;15238073;29;20103;-62
2021/05/01 16:14:03;;;;;;;1999.90;999.90;;;;;;;16.39;43.65;100741.97;15255183;29;20075;-61
2021/05/01 16:21:35;;;;;;;1999.90;999.90;;;;;;;16.47;43.07;100755.00;15217668;29;20052;-64
2021/05/01 16:29:09;;;;;;;1999.90;999.90;;;;;;;16.29;43.56;100736.94;15230811;29;20062;-64
2021/05/01 16:36:42;;;;;;;1999.90;999.90;;;;;;;16.27;44.26;100744.94;15210977;29;20131;-66
2021/05/01 16:44:13;;;;;;;1999.90;999.90;;;;;;;15.91;44.75;100743.34;15230668;29;20063;-63
2021/05/01 16:51:46;;;;;;;1999.90;999.90;;;;;;;16.32;43.99;100753.06;15250611;29;20510;-62
2021/05/01 16:59:17;;;;;;;1999.90;999.90;;;;;;;16.11;43.28;100731.75;15235345;29;20052;-63
2021/05/01 17:06:50;;;;;;;1999.90;999.90;;;;;;;15.99;43.48;100728.25;15235988;29;20188;-64
2021/05/01 17:14:22;;;;;;;1999.90;999.90;;;;;;;16.16;44.73;100744.72;15259083;29;20048;-65
2021/05/01 17:21:55;;;;;;;1999.90;999.90;;;;;;;15.81;44.15;100742.75;15268000;29;20052;-64
2021/05/01 17:29:28;;;;;;;1999.90;999.90;;;;;;;15.96;46.01;100743.09;15252554;29;20560;-65
2021/05/01 17:37:00;;;;;;;1999.90;999.90;;;;;;;15.58;46.95;100748.22;15253721;29;20044;-64
2021/05/01 17:44:33;;;;;;;1999.90;999.90;;;;;;;15.45;47.18;100754.34;15257686;29;20080;-65
2021/05/01 17:52:05;;;;;;;1999.90;999.90;;;;;;;15.20;47.63;100768.56;15264411;29;20054;-64
2021/05/01 17:59:37;;;;;;;1999.90;999.90;;;;;;;14.97;48.57;100767.59;15278370;29;20136;-65
2021/05/01 18:07:10;;;;;;;1999.90;999.90;;;;;;;15.25;48.58;100770.31;15261298;29;20060;-65
2021/05/01 18:14:41;;;;;;;1999.90;999.90;;;;;;;14.61;51.00;100765.81;15245292;29;20087;-64
2021/05/01 18:22:14;;;;;;;1999.90;999.90;;;;;;;14.30;52.77;100747.69;15244440;29;20052;-64
2021/05/01 18:29:45;;;;;;;1999.90;999.90;;;;;;;14.28;53.35;100771.69;15276029;29;20044;-64
2021/05/01 18:37:18;;;;;;;1999.90;999.90;;;;;;;13.97;54.57;100764.78;15228105;29;20080;-66
2021/05/01 18:44:50;;;;;;;1999.90;999.90;;;;;;;13.72;55.35;100754.75;15259912;29;20044;-65
2021/05/01 18:52:22;;;;;;;1999.90;999.90;;;;;;;13.56;56.31;100758.31;15274371;29;20409;-64
2021/05/01 18:59:54;;;;;;;1999.90;999.90;;;;;;;13.40;56.68;100765.78;15258417;29;20079;-65
2021/05/01 19:07:26;;;;;;;1999.90;999.90;;;;;;;13.12;58.15;100773.19;15275397;29;20048;-64
2021/05/01 19:15:03;;;;;;;1999.90;999.90;;;;;;;12.98;58.63;100784.75;15246614;29;20469;-61
2021/05/01 19:22:36;;;;;;;1999.90;999.90;;;;;;;13.00;58.77;100765.59;15259402;29;20528;-65
2021/05/01 19:30:10;;;;;;;1999.90;999.90;;;;;;;12.94;58.97;100764.22;15257929;29;20063;-64
2021/05/01 19:37:42;;;;;;;;;;;;;;;12.75;59.75;100763.94;15240214;29;20052;-64
2021/05/01 19:45:14;;;;;;;1999.90;999.90;;;;;;;12.54;60.29;100773.22;15271957;29;19923;-62
2021/05/01 19:52:47;;;;;;;1999.90;999.90;;;;;;;12.59;60.16;100775.78;15257451;29;20179;-65
2021/05/01 20:00:20;;;;;;;1999.90;999.90;;;;;;;12.59;60.43;100774.97;15272100;29;20071;-63
2021/05/01 20:07:53;;;;;;;1999.90;999.90;;;;;;;12.38;60.88;100766.59;15255642;29;20498;-63
2021/05/01 20:15:26;;;;;;;1999.90;999.90;;;;;;;12.45;61.00;100764.09;15223588;29;20052;-63
2021/05/01 20:22:58;;;;;;;1999.90;999.90;;;;;;;12.42;61.06;100762.78;15255184;29;20056;-63
2021/05/01 20:30:30;;;;;;;1999.90;999.90;;;;;;;12.17;61.48;100744.25;15253999;29;20540;-62
2021/05/01 20:38:03;;;;;;;1999.90;999.90;;;;;;;12.07;62.10;100758.66;15254720;29;20131;-64
2021/05/01 20:45:35;;;;;;;1999.90;999.90;;;;;;;12.01;62.01;100751.66;15237206;29;20036;-62
2021/05/01 20:53:08;;;;;;;1999.90;999.90;;;;;;;12.00;61.81;100739.66;15253863;29;20521;-61
2021/05/01 21:00:40;;;;;;;1999.90;999.90;;;;;;;11.97;62.21;100729.13;15253670;29;20115;-62
2021/05/01 21:08:12;;;;;;;1999.90;999.90;;;;;;;11.88;62.49;100725.63;15220978;29;20059;-65
2021/05/01 21:15:44;;;;;;;1999.90;999.90;;;;;;;12.02;62.22;100723.34;15251891;29;20524;-64
2021/05/01 21:23:17;;;;;;;1999.90;999.90;;;;;;;11.97;62.86;100703.97;15321499;23;20043;-63
2021/05/01 21:30:48;;;;;;;1999.90;999.90;;;;;;;11.74;63.07;100699.88;15436399;28;20074;-60
2021/05/01 21:38:21;;;;;;;1999.90;999.90;;;;;;;11.79;63.37;100688.50;15436462;28;20078;-60
2021/05/01 21:45:53;;;;;;;1999.90;999.90;;;;;;;11.71;63.20;100695.78;15418687;28;20109;-59
2021/05/01 21:53:25;;;;;;;1999.90;999.90;;;;;;;11.72;63.85;100691.00;15443251;28;20581;-61
2021/05/01 22:01:10;;;;;;;1999.90;999.90;;;;;;;11.58;64.65;100682.91;15458214;28;20196;-62
2021/05/01 22:08:43;;;;;;;1999.90;999.90;;;;;;;11.66;64.26;100692.34;15480242;28;20054;-59
2021/05/01 22:16:14;;;;;;;1999.90;999.90;;;;;;;11.51;65.24;100682.63;15497126;28;20046;-59
2021/05/01 22:23:58;;;;;;;1999.90;999.90;;;;;;;11.77;65.23;100682.41;15463433;28;20101;-62
2021/05/01 22:31:29;;;;;;;;;;;;;;;11.52;65.51;100681.47;15495585;28;20046;-60
2021/05/01 22:39:04;;;;;;;1999.90;999.90;;;;;;;11.54;66.51;100665.97;15495302;28;19984;-60
2021/05/01 22:46:38;;;;;;;1999.90;999.90;;;;;;;11.34;66.96;100663.19;15476238;28;20062;-61
2021/05/01 22:54:11;;;;;;;;;;;;;;;11.40;66.92;100659.84;15475874;28;20051;-61
2021/05/01 23:01:43;;;;;;;1999.90;999.90;;;;;;;11.35;67.19;100650.84;15476066;28;20020;-60
2021/05/01 23:09:17;;;;;;;;;;;;;;;11.41;67.33;100647.53;15474043;28;20043;-60
2021/05/01 23:16:50;;;;;;;1999.90;999.90;;;;;;;11.42;67.20;100632.38;15474069;28;19922;-59
2021/05/01 23:24:22;;;;;;;1999.90;999.90;;;;;;;11.45;67.10;100631.69;15489842;28;20050;-60
2021/05/01 23:31:54;;;;;;;1999.90;999.90;;;;;;;11.48;67.65;100636.63;15490827;28;20054;-60
2021/05/01 23:39:27;;;;;;;1999.90;999.90;;;;;;;11.66;67.06;100633.66;15472705;28;20046;-59
2021/05/01 23:46:59;;;;;;;1999.90;999.90;;;;;;;11.53;67.08;100635.59;15489913;28;20456;-61
2021/05/01 23:54:31;;;;;;;1999.90;999.90;;;;;;;11.50;67.60;100617.53;15489405;28;20073;-60
